Time;durP1;ratioP1;P1;durP2;ratioP2;P2;SDS_P1;SDS_P2;PMS_P1;PMS_P2;Temp;Humidity;BMP_temperature;BMP_pressure;BME280_temperature;BME280_humidity;BME280_pressure;Samples;Min_cycle;Max_cycle;Signal;HPM_P1;HPM_P2
2021/04/22 00:01:10;;;;;;;16.40;8.18;;;;;;;8.02;54.17;94238.84;4990923;28;20514;-69
2021/04/22 00:03:36;;;;;;;11.43;5.05;;;;;;;7.82;53.21;94240.69;4999391;28;20114;-69
2021/04/22 00:06:01;;;;;;;15.65;7.82;;;;;;;7.80;53.42;94245.50;5007498;28;20057;-69
2021/04/22 00:08:28;;;;;;;13.95;6.38;;;;;;;7.74;54.02;94237.88;5006491;28;20034;-69
2021/04/22 00:10:53;;;;;;;15.40;7.90;;;;;;;7.74;54.54;94243.19;4999644;28;20032;-69
2021/04/22 00:13:22;;;;;;;9.88;6.22;;;;;;;7.68;54.35;94247.00;4995316;28;20105;-69
2021/04/22 00:15:49;;;;;;;12.30;6.85;;;;;;;7.60;54.89;94233.25;5001145;28;20044;-69
2021/04/22 00:18:15;;;;;;;9.35;5.32;;;;;;;7.61;55.41;94232.22;4995836;28;20099;-70
2021/04/22 00:20:41;;;;;;;13.77;6.47;;;;;;;7.56;54.91;94226.16;4996736;28;20030;-69
2021/04/22 00:23:11;;;;;;;13.15;6.85;;;;;;;7.54;55.23;94230.97;5012965;28;20485;-69
2021/04/22 00:25:37;;;;;;;14.88;7.00;;;;;;;7.60;54.98;94229.84;4995655;28;20033;-69
2021/04/22 00:28:03;;;;;;;12.18;6.28;;;;;;;7.56;54.57;94226.16;4997013;28;20063;-69
2021/04/22 00:30:29;;;;;;;18.33;7.15;;;;;;;7.51;55.49;94231.53;5011568;28;20025;-69
2021/04/22 00:32:55;;;;;;;26.88;11.75;;;;;;;7.51;55.59;94229.69;4996909;28;20067;-69
2021/04/22 00:35:21;;;;;;;23.77;9.73;;;;;;;7.45;55.91;94228.16;4992812;28;20118;-70
2021/04/22 00:37:47;;;;;;;22.20;9.80;;;;;;;7.48;55.41;94226.81;5003725;28;20148;-70
2021/04/22 00:40:19;;;;;;;22.05;10.55;;;;;;;7.54;56.06;94228.31;5010039;28;20515;-70
2021/04/22 00:42:45;;;;;;;22.55;10.40;;;;;;;7.46;55.99;94229.72;4999893;28;20498;-70
2021/04/22 00:45:11;;;;;;;21.63;9.05;;;;;;;7.48;56.04;94230.22;5003084;28;20045;-70
2021/04/22 00:47:38;;;;;;;45.35;17.83;;;;;;;7.50;55.90;94227.31;5004301;28;20125;-70
2021/04/22 00:50:05;;;;;;;15.23;7.57;;;;;;;7.51;55.63;94232.34;5000434;28;20030;-70
2021/04/22 00:52:31;;;;;;;11.70;6.47;;;;;;;7.39;55.79;94230.09;4998729;28;20029;-70
2021/04/22 00:54:56;;;;;;;11.15;5.85;;;;;;;7.38;55.64;94244.41;5004840;28;20540;-69
2021/04/22 00:57:21;;;;;;;12.07;6.00;;;;;;;7.34;56.03;94242.59;5010444;28;20029;-69
2021/04/22 00:59:47;;;;;;;14.40;7.10;;;;;;;7.23;56.79;94239.28;4998613;28;20199;-70
2021/04/22 01:02:14;;;;;;;15.20;7.15;;;;;;;7.08;57.84;94242.88;4998752;28;20073;-69
2021/04/22 01:04:40;;;;;;;12.25;7.40;;;;;;;7.01;58.49;94243.22;5002727;28;20135;-69
2021/04/22 01:07:06;;;;;;;13.75;6.75;;;;;;;7.05;58.05;94245.31;4992537;28;20030;-69
2021/04/22 01:09:31;;;;;;;20.80;7.47;;;;;;;7.05;57.92;94243.44;4992195;28;20095;-70
2021/04/22 01:11:58;;;;;;;20.38;8.63;;;;;;;7.08;57.82;94242.09;4993843;28;20519;-70
2021/04/22 01:14:24;;;;;;;15.70;8.40;;;;;;;7.09;57.99;94241.03;4989906;28;20125;-70
2021/04/22 01:16:49;;;;;;;14.38;7.80;;;;;;;7.13;57.43;94240.19;4996374;28;20148;-69
2021/04/22 01:19:16;;;;;;;14.18;7.78;;;;;;;7.15;57.39;94247.84;5004875;28;20500;-70
2021/04/22 01:21:42;;;;;;;19.48;7.82;;;;;;;7.18;57.37;94252.59;5006350;28;20474;-70
2021/04/22 01:24:09;;;;;;;21.77;9.73;;;;;;;7.20;57.29;94250.44;5011641;28;20805;-69
2021/04/22 01:26:35;;;;;;;39.67;11.55;;;;;;;7.26;57.46;94249.31;4996125;28;20028;-69
2021/04/22 01:29:04;;;;;;;35.20;11.38;;;;;;;7.23;57.27;94249.88;4989943;28;21504;-70
2021/04/22 01:31:30;;;;;;;20.27;8.48;;;;;;;7.21;57.40;94252.03;5001770;28;20026;-70
2021/04/22 01:34:09;;;;;;;27.40;9.52;;;;;;;7.17;57.47;94248.38;5005611;28;20500;-69
2021/04/22 01:36:40;;;;;;;14.90;8.30;;;;;;;7.07;57.96;94237.88;5009140;28;20028;-69
2021/04/22 01:39:08;;;;;;;15.67;7.93;;;;;;;7.07;58.21;94251.13;5002841;28;20504;-70
2021/04/22 01:41:33;;;;;;;19.13;8.07;;;;;;;7.05;58.42;94243.44;5006629;28;20097;-72
2021/04/22 01:43:59;;;;;;;13.88;7.32;;;;;;;7.00;58.33;94246.13;4993175;28;20577;-70
2021/04/22 01:46:24;;;;;;;14.70;7.22;;;;;;;6.92;58.53;94241.44;5005294;28;20512;-70
2021/04/22 01:48:50;;;;;;;17.65;9.40;;;;;;;6.92;58.30;94239.59;4999203;28;20478;-70
2021/04/22 01:51:16;;;;;;;20.35;7.50;;;;;;;7.00;57.27;94244.28;5008784;28;20022;-70
2021/04/22 01:53:41;;;;;;;21.42;6.82;;;;;;;7.01;56.95;94243.22;5001172;28;20021;-71
2021/04/22 01:56:07;;;;;;;14.48;7.30;;;;;;;6.92;57.79;94239.59;5006554;28;20030;-71
2021/04/22 01:58:33;;;;;;;18.05;7.10;;;;;;;6.88;57.86;94233.28;4990050;28;20026;-71
2021/04/22 02:01:00;;;;;;;11.95;6.55;;;;;;;6.90;58.26;94235.63;4996391;28;20066;-71
2021/04/22 02:03:31;;;;;;;13.18;6.25;;;;;;;6.93;58.24;94241.16;5002896;28;20045;-71
2021/04/22 02:05:56;;;;;;;12.85;6.57;;;;;;;6.86;57.99;94238.09;4996287;28;20025;-70
2021/04/22 02:08:22;;;;;;;14.02;6.47;;;;;;;6.92;57.62;94239.59;4999390;28;20030;-69
2021/04/22 02:10:48;;;;;;;19.98;6.30;;;;;;;6.92;57.18;94239.59;4995321;28;20034;-69
2021/04/22 02:13:16;;;;;;;17.15;7.40;;;;;;;6.89;57.39;94239.38;4999609;28;20068;-70
2021/04/22 02:15:42;;;;;;;17.42;7.55;;;;;;;6.89;57.57;94240.16;4997078;28;20418;-69
2021/04/22 02:18:07;;;;;;;14.15;7.43;;;;;;;6.93;57.21;94235.88;5009387;28;20034;-69
2021/04/22 02:20:34;;;;;;;14.38;6.82;;;;;;;6.93;57.16;94240.38;5001924;28;20474;-69
2021/04/22 02:23:00;;;;;;;16.55;6.53;;;;;;;6.85;57.67;94233.84;4999003;28;20030;-70
2021/04/22 02:25:27;;;;;;;13.20;6.85;;;;;;;6.80;57.92;94247.16;5008759;28;20472;-70
2021/04/22 02:27:53;;;;;;;17.88;7.60;;;;;;;6.81;58.16;94248.72;5002013;28;20037;-70
2021/04/22 02:30:22;;;;;;;14.00;7.68;;;;;;;6.86;57.67;94247.88;4993633;28;20470;-70
2021/04/22 02:32:48;;;;;;;13.05;6.80;;;;;;;6.80;58.25;94247.16;4999878;28;20029;-70
2021/04/22 02:35:15;;;;;;;15.82;6.72;;;;;;;6.78;58.35;94254.59;5010650;28;20456;-70
2021/04/22 02:37:41;;;;;;;10.07;5.82;;;;;;;6.79;58.21;94250.84;5007640;28;20571;-70
2021/04/22 02:40:10;;;;;;;10.27;6.80;;;;;;;6.80;58.35;94247.16;4998625;28;20030;-70
2021/04/22 02:42:36;;;;;;;12.82;6.82;;;;;;;6.77;57.98;94253.78;4994852;28;20474;-69
2021/04/22 02:45:05;;;;;;;17.23;9.02;;;;;;;6.75;58.14;94253.25;5000187;28;20104;-70
2021/04/22 02:47:31;;;;;;;12.57;7.13;;;;;;;6.66;58.73;94246.22;4997287;28;20080;-69
2021/04/22 02:49:56;;;;;;;18.58;9.00;;;;;;;6.58;59.13;94253.69;5002727;28;20146;-70
2021/04/22 02:52:22;;;;;;;17.40;8.23;;;;;;;6.55;59.13;94262.16;5006192;28;20025;-69
2021/04/22 02:54:47;;;;;;;15.43;8.38;;;;;;;6.56;59.05;94263.75;5000745;28;20022;-69
2021/04/22 02:57:13;;;;;;;15.93;8.55;;;;;;;6.52;59.31;94262.72;4998902;28;20113;-70
2021/04/22 02:59:38;;;;;;;19.60;8.65;;;;;;;6.49;59.32;94262.50;4995871;28;20038;-70
2021/04/22 03:02:04;;;;;;;14.73;7.70;;;;;;;6.48;59.48;94260.94;4993239;28;20061;-70
2021/04/22 03:04:29;;;;;;;13.50;7.63;;;;;;;6.40;59.48;94262.31;4999025;28;20026;-71
2021/04/22 03:06:55;;;;;;;12.82;7.55;;;;;;;6.45;59.24;94256.94;4998036;28;20037;-70
2021/04/22 03:09:20;;;;;;;13.13;6.65;;;;;;;6.50;59.21;94261.44;4994395;28;20022;-71
2021/04/22 03:11:45;;;;;;;15.13;7.50;;;;;;;6.45;59.62;94261.47;5000560;28;20013;-71
2021/04/22 03:14:11;;;;;;;15.82;7.20;;;;;;;6.38;59.56;94259.13;4999087;28;20033;-71
2021/04/22 03:16:36;;;;;;;16.92;7.85;;;;;;;6.30;60.09;94257.88;4989353;28;20045;-70
2021/04/22 03:19:02;;;;;;;15.32;8.05;;;;;;;6.28;60.18;94256.56;4997396;28;20105;-70
2021/04/22 03:21:27;;;;;;;13.52;7.63;;;;;;;6.27;60.08;94262.91;5000291;28;20026;-71
2021/04/22 03:23:52;;;;;;;16.27;7.40;;;;;;;6.31;59.71;94258.66;5002699;28;20030;-70
2021/04/22 03:26:18;;;;;;;13.32;7.60;;;;;;;6.28;60.00;94259.22;4990756;28;20029;-70
2021/04/22 03:28:44;;;;;;;18.45;8.00;;;;;;;6.26;60.35;94264.78;5003119;28;20350;-71
2021/04/22 03:31:09;;;;;;;12.30;6.72;;;;;;;6.24;60.14;94261.63;4995641;28;20049;-70
2021/04/22 03:33:34;;;;;;;16.48;8.15;;;;;;;6.23;60.28;94266.13;5004655;28;20030;-70
2021/04/22 03:36:00;;;;;;;34.28;10.65;;;;;;;6.22;59.99;94263.75;4997284;28;20054;-71
2021/04/22 03:38:25;;;;;;;41.13;12.32;;;;;;;6.23;60.27;94279.38;4996624;28;20037;-70
2021/04/22 03:40:51;;;;;;;30.90;10.52;;;;;;;6.20;60.31;94279.91;5002964;28;20109;-70
2021/04/22 03:43:16;;;;;;;29.35;9.93;;;;;;;6.21;60.33;94278.06;4999915;28;20027;-70
2021/04/22 03:45:41;;;;;;;22.38;7.53;;;;;;;6.17;60.25;94280.47;4993642;28;20498;-70
2021/04/22 03:48:07;;;;;;;21.38;7.25;;;;;;;6.20;59.94;94276.47;4996907;28;20095;-71
2021/04/22 03:50:32;;;;;;;12.25;6.20;;;;;;;6.16;60.47;94281.50;5002265;28;20030;-70
2021/04/22 03:52:58;;;;;;;11.93;6.28;;;;;;;6.19;60.53;94286.28;4999568;28;20022;-70
2021/04/22 03:55:23;;;;;;;14.18;6.60;;;;;;;6.17;60.55;94282.31;5006493;28;20037;-70
2021/04/22 03:57:49;;;;;;;12.27;6.75;;;;;;;6.23;60.63;94289.94;5011556;28;20034;-70
2021/04/22 04:00:18;;;;;;;15.93;6.70;;;;;;;6.21;60.60;94283.34;5003288;28;20083;-70
2021/04/22 04:02:43;;;;;;;16.30;6.57;;;;;;;6.22;60.92;94284.91;5003996;28;20091;-70
2021/04/22 04:05:09;;;;;;;12.02;6.80;;;;;;;6.29;60.71;94289.91;5007010;28;20030;-70
2021/04/22 04:07:36;;;;;;;13.55;7.28;;;;;;;6.26;60.91;94285.94;5000883;28;20389;-69
2021/04/22 04:10:02;;;;;;;16.27;6.78;;;;;;;6.29;60.97;94285.41;5012719;28;20545;-70
2021/04/22 04:12:28;;;;;;;13.35;5.80;;;;;;;6.36;60.90;94282.44;5012585;28;20029;-70
2021/04/22 04:14:55;;;;;;;27.92;7.40;;;;;;;6.33;61.10;94290.94;5013038;28;20042;-70
2021/04/22 04:17:20;;;;;;;14.90;7.10;;;;;;;6.40;61.40;94294.06;5004057;28;20129;-70
2021/04/22 04:19:45;;;;;;;15.45;7.50;;;;;;;6.45;60.94;94294.03;4995963;28;20062;-70
2021/04/22 04:22:12;;;;;;;16.70;9.55;;;;;;;6.48;61.04;94300.66;5002772;28;20038;-70
2021/04/22 04:24:37;;;;;;;15.68;8.50;;;;;;;6.54;60.99;94307.50;5011456;28;20103;-70
2021/04/22 04:27:03;;;;;;;20.52;9.23;;;;;;;6.59;60.43;94302.94;5014306;28;20022;-71
2021/04/22 04:29:28;;;;;;;26.80;9.15;;;;;;;6.67;60.36;94316.66;5003345;28;20030;-70
2021/04/22 04:31:54;;;;;;;20.92;9.35;;;;;;;6.75;60.03;94321.34;4997524;28;20041;-70
2021/04/22 04:34:19;;;;;;;20.05;10.25;;;;;;;6.80;59.61;94327.41;5012884;28;20029;-70
2021/04/22 04:36:46;;;;;;;27.73;10.00;;;;;;;6.91;59.12;94325.47;5007979;28;20034;-70
2021/04/22 04:39:15;;;;;;;31.15;10.60;;;;;;;6.92;59.11;94323.59;5007847;28;20053;-71
2021/04/22 04:41:42;;;;;;;25.55;10.45;;;;;;;6.95;59.31;94329.13;5008289;28;20113;-71
2021/04/22 04:44:08;;;;;;;24.60;9.93;;;;;;;6.95;59.16;94323.84;5000159;28;20045;-71
2021/04/22 04:46:34;;;;;;;26.67;10.38;;;;;;;7.07;59.01;94333.28;5000667;28;20474;-70
2021/04/22 04:48:59;;;;;;;37.45;11.63;;;;;;;7.05;58.94;94336.22;5003000;28;20030;-70
2021/04/22 04:51:26;;;;;;;25.45;11.88;;;;;;;7.12;59.06;94336.66;5008166;28;20050;-71
2021/04/22 04:53:51;;;;;;;28.23;13.60;;;;;;;7.27;59.26;94335.75;5009959;28;20049;-70
2021/04/22 04:56:18;;;;;;;40.50;14.23;;;;;;;7.32;59.41;94343.66;5004549;28;20030;-71
2021/04/22 04:58:48;;;;;;;29.90;12.82;;;;;;;7.40;59.31;94343.03;5009509;28;20508;-71
2021/04/22 05:01:14;;;;;;;27.48;13.38;;;;;;;7.39;59.61;94338.03;5006961;28;20033;-71
2021/04/22 05:03:39;;;;;;;26.58;13.23;;;;;;;7.48;59.55;94344.28;5011843;28;20037;-71
2021/04/22 05:06:05;;;;;;;36.95;13.40;;;;;;;7.55;59.60;94336.78;4994850;28;20018;-70
2021/04/22 05:08:31;;;;;;;26.90;13.20;;;;;;;7.58;59.94;94336.22;5003320;28;20053;-70
2021/04/22 05:10:56;;;;;;;41.50;14.75;;;;;;;7.67;59.74;94339.03;5001782;28;20026;-78
2021/04/22 05:13:22;;;;;;;25.42;13.00;;;;;;;7.74;60.00;94338.72;5004821;28;20112;-77
2021/04/22 05:15:47;;;;;;;27.58;14.25;;;;;;;7.78;59.76;94345.81;4997738;28;20103;-74
2021/04/22 05:18:13;;;;;;;24.83;13.98;;;;;;;7.86;59.73;94346.25;4998440;28;20038;-75
2021/04/22 05:20:38;;;;;;;30.67;15.43;;;;;;;7.96;59.48;94351.47;4995822;28;20414;-74
2021/04/22 05:23:04;;;;;;;29.10;16.00;;;;;;;7.98;59.66;94339.50;5005495;28;20022;-75
2021/04/22 05:25:29;;;;;;;31.20;14.38;;;;;;;8.11;59.13;94351.25;5005085;28;20405;-75
2021/04/22 05:27:55;;;;;;;34.00;15.85;;;;;;;8.12;58.80;94355.50;4996727;28;20561;-74
2021/04/22 05:30:20;;;;;;;37.35;15.15;;;;;;;8.09;59.26;94352.63;4996328;28;20026;-74
2021/04/22 05:32:46;;;;;;;25.70;14.73;;;;;;;8.22;59.20;94355.38;5011431;28;20033;-74
2021/04/22 05:35:13;;;;;;;29.33;14.13;;;;;;;8.28;59.30;94350.78;5001497;28;20366;-75
2021/04/22 05:37:38;;;;;;;33.70;16.30;;;;;;;8.37;58.71;94357.03;4994594;28;20018;-75
2021/04/22 05:40:05;;;;;;;29.88;14.90;;;;;;;8.48;58.08;94360.38;4993641;28;20029;-75
2021/04/22 05:42:31;;;;;;;30.75;14.65;;;;;;;8.51;57.72;94359.81;5006671;28;20061;-75
2021/04/22 05:44:56;;;;;;;31.00;14.52;;;;;;;8.61;57.64;94349.03;5010832;28;20515;-76
2021/04/22 05:47:22;;;;;;;36.63;14.52;;;;;;;8.73;57.31;94353.91;5009053;28;20033;-75
2021/04/22 05:49:47;;;;;;;35.95;17.42;;;;;;;8.87;56.82;94364.59;4995586;28;20026;-75
2021/04/22 05:52:13;;;;;;;29.92;13.77;;;;;;;8.94;56.36;94358.91;4996841;28;20113;-76
2021/04/22 05:54:38;;;;;;;38.17;15.20;;;;;;;9.02;56.44;94358.25;5003197;28;20030;-76
2021/04/22 05:57:04;;;;;;;39.55;14.90;;;;;;;9.14;56.68;94366.56;4997903;28;20129;-76
2021/04/22 05:59:29;;;;;;;33.53;15.57;;;;;;;9.23;56.44;94372.00;4999661;28;20033;-76
2021/04/22 06:01:54;;;;;;;26.02;14.45;;;;;;;9.29;56.18;94362.06;5004322;28;20026;-76
2021/04/22 06:04:20;;;;;;;38.17;15.52;;;;;;;9.34;56.04;94367.28;4992113;28;20029;-76
2021/04/22 06:06:45;;;;;;;36.70;14.85;;;;;;;9.40;55.14;94364.28;4993044;28;20018;-76
2021/04/22 06:09:11;;;;;;;35.78;14.32;;;;;;;9.47;54.69;94366.53;5002852;28;20101;-76
2021/04/22 06:11:36;;;;;;;27.15;14.15;;;;;;;9.49;54.64;94363.59;4996222;28;20034;-70
2021/04/22 06:14:02;;;;;;;34.25;13.93;;;;;;;9.57;54.55;94368.25;5000618;28;20026;-70
2021/04/22 06:16:27;;;;;;;25.23;14.13;;;;;;;9.59;54.03;94352.78;4997419;28;20100;-70
2021/04/22 06:18:52;;;;;;;28.05;13.40;;;;;;;9.66;53.89;94363.78;5008725;28;20366;-70
2021/04/22 06:21:18;;;;;;;24.83;11.88;;;;;;;9.74;53.56;94360.44;5003412;28;20028;-70
2021/04/22 06:23:43;;;;;;;30.25;13.80;;;;;;;9.60;54.14;94360.44;5001423;28;20022;-70
2021/04/22 06:26:09;;;;;;;31.13;12.77;;;;;;;9.72;54.21;94365.28;4992175;28;20037;-70
2021/04/22 06:28:34;;;;;;;21.42;11.18;;;;;;;9.84;54.33;94362.13;5005797;28;20025;-70
2021/04/22 06:31:00;;;;;;;25.15;11.30;;;;;;;9.92;52.76;94366.78;4999687;28;20480;-70
2021/04/22 06:33:25;;;;;;;32.13;11.75;;;;;;;10.03;52.34;94365.50;5005397;28;20026;-70
2021/04/22 06:35:50;;;;;;;30.52;10.07;;;;;;;10.10;52.32;94359.78;5003669;28;20042;-73
2021/04/22 06:38:16;;;;;;;22.88;9.55;;;;;;;10.19;51.94;94365.97;4993251;28;20097;-74
2021/04/22 06:40:42;;;;;;;20.30;10.05;;;;;;;10.31;51.41;94364.72;4998700;28;20565;-73
2021/04/22 06:43:10;;;;;;;23.08;7.88;;;;;;;10.39;51.23;94362.13;4998615;28;20065;-73
2021/04/22 06:45:35;;;;;;;19.67;8.55;;;;;;;10.48;50.37;94353.41;4997590;28;20022;-74
2021/04/22 06:48:01;;;;;;;32.28;8.23;;;;;;;10.57;49.58;94360.41;4998830;28;20022;-72
2021/04/22 06:50:26;;;;;;;22.02;7.63;;;;;;;10.53;49.90;94361.31;4997128;28;20049;-74
2021/04/22 06:52:52;;;;;;;15.30;7.60;;;;;;;10.57;49.54;94360.41;4994388;28;20036;-72
2021/04/22 06:55:23;;;;;;;22.60;8.05;;;;;;;10.65;49.91;94361.59;4998258;28;20026;-71
2021/04/22 06:57:49;;;;;;;18.77;7.13;;;;;;;10.64;49.67;94360.00;5005798;28;20604;-72
2021/04/22 07:00:19;;;;;;;10.48;6.60;;;;;;;10.72;49.83;94359.28;4993240;28;20034;-71
2021/04/22 07:02:45;;;;;;;21.60;7.32;;;;;;;10.78;48.78;94359.94;4990271;28;20022;-70
2021/04/22 07:05:11;;;;;;;14.32;6.35;;;;;;;10.88;48.57;94365.06;4998392;28;20028;-72
2021/04/22 07:07:37;;;;;;;19.02;6.93;;;;;;;10.93;48.35;94366.81;5004118;28;20048;-72
2021/04/22 07:10:05;;;;;;;28.25;7.13;;;;;;;11.00;47.71;94362.63;4998354;28;20105;-68
2021/04/22 07:12:30;;;;;;;14.57;6.72;;;;;;;11.08;48.59;94353.13;4999791;28;20068;-69
2021/04/22 07:14:55;;;;;;;16.15;7.30;;;;;;;11.20;48.37;94357.91;5000347;28;20038;-69
2021/04/22 07:17:21;;;;;;;13.60;6.45;;;;;;;11.30;48.05;94360.34;4996936;28;20418;-68
2021/04/22 07:19:47;;;;;;;23.30;5.85;;;;;;;11.42;48.21;94363.22;4998045;28;20022;-68
2021/04/22 07:22:12;;;;;;;8.52;5.40;;;;;;;11.54;47.06;94362.66;4993458;28;20036;-69
2021/04/22 07:24:39;;;;;;;12.07;6.45;;;;;;;11.63;45.73;94365.38;4993061;28;20034;-70
2021/04/22 07:27:06;;;;;;;14.55;5.13;;;;;;;11.68;45.89;94375.91;4993552;28;20022;-67
2021/04/22 07:29:32;;;;;;;13.00;6.22;;;;;;;11.70;45.38;94371.03;4999512;28;20405;-68
2021/04/22 07:31:57;;;;;;;16.27;6.05;;;;;;;11.72;45.60;94376.88;4994940;28;20030;-70
2021/04/22 07:34:23;;;;;;;10.25;5.88;;;;;;;11.80;45.74;94372.66;4999857;28;20030;-70
2021/04/22 07:36:50;;;;;;;11.55;5.68;;;;;;;11.87;45.63;94377.59;5006611;28;20449;-70
2021/04/22 07:39:15;;;;;;;13.43;6.70;;;;;;;12.02;44.23;94361.94;5006867;28;20478;-68
2021/04/22 07:41:41;;;;;;;17.63;7.15;;;;;;;12.08;44.13;94365.25;4992443;28;20041;-70
2021/04/22 07:44:07;;;;;;;22.92;6.93;;;;;;;12.17;43.96;94367.97;4996682;28;20073;-70
2021/04/22 07:46:32;;;;;;;13.95;6.53;;;;;;;12.24;43.73;94361.06;5004252;28;20066;-70
2021/04/22 07:48:57;;;;;;;11.38;6.82;;;;;;;12.31;43.41;94375.88;4999983;28;20096;-69
2021/04/22 07:51:23;;;;;;;18.15;7.50;;;;;;;12.37;42.91;94374.63;4999246;28;20026;-70
2021/04/22 07:53:48;;;;;;;9.55;5.53;;;;;;;12.18;42.90;94359.63;4999286;28;20026;-70
2021/04/22 07:56:14;;;;;;;12.30;6.32;;;;;;;12.22;43.59;94360.59;4999554;28;20042;-72
2021/04/22 07:58:39;;;;;;;17.67;6.88;;;;;;;12.39;42.81;94364.41;4995026;28;20508;-71
2021/04/22 08:01:05;;;;;;;21.27;7.43;;;;;;;12.54;43.65;94358.63;5003375;28;20034;-70
2021/04/22 08:03:31;;;;;;;26.45;8.30;;;;;;;12.70;44.62;94355.47;4996495;28;20076;-71
2021/04/22 08:05:56;;;;;;;18.80;7.68;;;;;;;12.84;43.27;94354.25;5000889;28;20061;-70
2021/04/22 08:08:24;;;;;;;19.52;8.38;;;;;;;12.94;42.80;94355.00;5001525;28;20045;-72
2021/04/22 08:10:51;;;;;;;16.95;7.25;;;;;;;12.96;42.63;94353.59;4995691;28;20117;-71
2021/04/22 08:13:18;;;;;;;20.98;11.52;;;;;;;13.09;44.00;94348.38;4994765;28;20022;-72
2021/04/22 08:15:47;;;;;;;21.38;10.13;;;;;;;13.26;44.04;94345.69;4997506;28;20129;-72
2021/04/22 08:18:13;;;;;;;28.13;9.70;;;;;;;13.34;43.44;94338.78;4995600;28;20036;-72
2021/04/22 08:20:39;;;;;;;23.25;8.77;;;;;;;13.47;42.05;94340.47;4992991;28;20030;-72
2021/04/22 08:23:06;;;;;;;16.63;8.10;;;;;;;13.60;42.03;94333.38;4994371;28;20466;-72
2021/04/22 08:25:36;;;;;;;15.90;6.38;;;;;;;13.76;40.37;94334.41;4993510;28;20425;-72
2021/04/22 08:28:03;;;;;;;14.82;7.35;;;;;;;13.88;40.26;94332.94;4998323;28;20023;-70
2021/04/22 08:30:32;;;;;;;20.48;7.95;;;;;;;14.00;40.55;94335.72;4995005;28;20477;-69
2021/04/22 08:32:59;;;;;;;19.58;7.70;;;;;;;14.11;39.42;94339.63;4991973;28;20026;-69
2021/04/22 08:35:25;;;;;;;19.67;7.88;;;;;;;14.20;39.58;94339.56;4991302;28;20044;-71
2021/04/22 08:37:51;;;;;;;13.25;6.82;;;;;;;14.27;39.11;94339.06;5005836;28;20102;-70
2021/04/22 08:40:17;;;;;;;17.35;6.35;;;;;;;14.37;37.63;94336.00;4994851;28;20109;-70
2021/04/22 08:42:43;;;;;;;13.98;6.32;;;;;;;14.55;37.60;94332.13;5004966;28;20022;-70
2021/04/22 08:45:11;;;;;;;14.82;5.50;;;;;;;14.66;37.80;94324.50;5002256;28;20026;-70
2021/04/22 08:47:39;;;;;;;18.90;6.78;;;;;;;14.75;37.70;94333.25;5009047;28;20030;-69
2021/04/22 08:50:08;;;;;;;12.68;6.00;;;;;;;14.93;36.27;94322.38;5006118;28;20504;-69
2021/04/22 08:52:34;;;;;;;13.18;5.90;;;;;;;15.05;35.75;94328.56;5002515;28;20474;-69
2021/04/22 08:54:59;;;;;;;10.30;5.45;;;;;;;15.15;34.40;94319.34;5007901;28;20125;-72
2021/04/22 08:57:25;;;;;;;19.55;5.15;;;;;;;15.23;34.31;94315.00;5002751;28;20029;-72
2021/04/22 08:59:53;;;;;;;7.88;4.30;;;;;;;15.37;33.42;94315.50;4995443;28;20025;-72
2021/04/22 09:02:21;;;;;;;11.88;4.28;;;;;;;15.45;33.37;94316.53;4997397;28;20079;-72
2021/04/22 09:04:47;;;;;;;8.38;4.65;;;;;;;15.47;32.82;94318.84;5007574;28;20481;-71
2021/04/22 09:07:13;;;;;;;8.15;4.22;;;;;;;15.56;33.32;94317.66;4997341;28;20085;-71
2021/04/22 09:09:38;;;;;;;10.73;5.22;;;;;;;15.78;33.36;94316.50;4997372;28;20525;-72
2021/04/22 09:12:15;;;;;;;2.58;1.60;;;;;;;16.01;28.04;94302.63;5007579;28;20033;-71
2021/04/22 09:14:54;;;;;;;4.55;1.88;;;;;;;16.17;29.33;94294.66;5003053;28;20509;-72
2021/04/22 09:17:20;;;;;;;4.78;2.63;;;;;;;16.39;29.24;94288.03;5009790;28;20049;-72
2021/04/22 09:19:49;;;;;;;5.00;2.13;;;;;;;16.52;28.96;94292.25;4989894;28;20053;-73
2021/04/22 09:22:15;;;;;;;4.10;1.92;;;;;;;16.60;26.26;94294.03;4994344;28;20053;-73
2021/04/22 09:24:41;;;;;;;7.25;2.08;;;;;;;16.45;26.79;94298.22;4993116;28;20037;-73
2021/04/22 09:27:16;;;;;;;5.00;2.00;;;;;;;16.23;26.33;94283.31;4998185;28;20517;-73
2021/04/22 09:29:45;;;;;;;2.78;1.42;;;;;;;16.30;27.73;94290.03;4995452;28;20029;-73
2021/04/22 09:32:24;;;;;;;3.40;1.65;;;;;;;16.47;27.33;94283.66;5000060;28;20116;-73
2021/04/22 09:34:53;;;;;;;4.10;1.67;;;;;;;16.49;26.04;94292.16;5011167;28;20061;-72
2021/04/22 09:37:21;;;;;;;2.85;1.48;;;;;;;16.35;23.60;94273.69;4997387;28;20560;-73
2021/04/22 09:39:48;;;;;;;3.22;1.35;;;;;;;16.13;24.96;94286.47;5000999;28;20117;-72
2021/04/22 09:42:15;;;;;;;3.20;1.30;;;;;;;16.01;24.40;94281.09;4990960;28;20034;-73
2021/04/22 09:44:47;;;;;;;3.13;1.40;;;;;;;15.93;25.59;94260.50;4993298;28;20095;-72
2021/04/22 09:47:20;;;;;;;3.85;1.42;;;;;;;15.91;26.29;94255.44;4996738;28;20117;-73
2021/04/22 09:49:47;;;;;;;;;;;;;;;16.10;26.61;94256.78;5007907;28;20021;-73
2021/04/22 09:52:16;;;;;;;3.15;2.10;;;;;;;16.31;26.08;94253.97;5009088;28;20390;-70
2021/04/22 09:54:48;;;;;;;2.00;1.40;;;;;;;16.47;25.20;94257.53;5009303;28;20375;-72
2021/04/22 09:57:26;;;;;;;2.35;1.35;;;;;;;16.68;25.90;94273.47;5004993;28;20026;-72
2021/04/22 09:59:53;;;;;;;2.45;1.42;;;;;;;16.64;23.52;94256.44;5005601;28;20044;-73
2021/04/22 10:02:19;;;;;;;2.67;1.38;;;;;;;16.67;25.31;94244.22;5009356;28;20026;-71
2021/04/22 10:04:47;;;;;;;7.88;1.60;;;;;;;16.82;25.07;94246.22;5009443;28;20026;-73
2021/04/22 10:07:19;;;;;;;5.70;2.05;;;;;;;16.96;24.98;94251.22;5011395;28;20029;-72
2021/04/22 10:09:45;;;;;;;5.35;1.90;;;;;;;16.97;24.60;94258.94;5011112;28;20053;-71
2021/04/22 10:12:40;;;;;;;2.67;1.58;;;;;;;16.96;23.54;94246.59;5009492;28;20060;-72
2021/04/22 10:15:20;;;;;;;2.60;1.30;;;;;;;17.00;23.89;94244.78;4988924;28;20057;-73
2021/04/22 10:18:15;;;;;;;6.63;1.38;;;;;;;17.04;23.00;94244.91;5008866;28;20021;-73
2021/04/22 10:20:40;;;;;;;2.13;1.33;;;;;;;16.91;22.95;94238.75;4987227;28;20073;-72
2021/04/22 10:23:08;;;;;;;1.92;1.30;;;;;;;16.87;23.45;94239.78;4999244;28;20109;-73
2021/04/22 10:25:36;;;;;;;1.50;1.05;;;;;;;16.84;22.55;94230.50;4989397;28;20029;-72
2021/04/22 10:28:13;;;;;;;2.17;1.38;;;;;;;16.63;21.50;94244.91;4995769;28;20029;-72
2021/04/22 10:30:44;;;;;;;2.65;1.05;;;;;;;16.71;22.23;94242.41;5003682;28;20030;-73
2021/04/22 10:33:10;;;;;;;6.45;1.15;;;;;;;16.76;23.54;94237.56;4994838;28;20022;-72
2021/04/22 10:35:39;;;;;;;2.83;1.55;;;;;;;16.95;23.17;94234.25;5001750;28;20445;-73
2021/04/22 10:38:05;;;;;;;1.42;1.00;;;;;;;17.02;22.21;94221.00;4997109;28;20036;-72
2021/04/22 10:40:36;;;;;;;5.18;1.23;;;;;;;16.96;22.96;94224.28;4990462;28;20037;-72
2021/04/22 10:43:05;;;;;;;9.93;3.65;;;;;;;17.08;24.93;94226.16;4995367;28;20505;-73
2021/04/22 10:45:32;;;;;;;5.80;2.33;;;;;;;17.23;23.71;94209.22;5008471;28;20037;-72
2021/04/22 10:47:58;;;;;;;2.38;1.42;;;;;;;17.47;23.42;94215.56;4992998;28;20023;-71
2021/04/22 10:50:32;;;;;;;2.30;1.05;;;;;;;17.40;20.33;94208.88;5006700;28;20021;-71
2021/04/22 10:53:00;;;;;;;2.00;1.08;;;;;;;17.35;21.42;94211.81;5007296;28;20414;-71
2021/04/22 10:55:31;;;;;;;9.32;1.58;;;;;;;17.48;25.18;94212.50;5010068;28;20025;-72
2021/04/22 10:58:12;;;;;;;4.13;1.20;;;;;;;17.62;24.90;94206.69;4998139;28;20029;-72
2021/04/22 11:00:37;;;;;;;7.45;2.97;;;;;;;17.85;25.04;94198.81;4991631;28;20088;-71
2021/04/22 11:03:03;;;;;;;4.28;1.58;;;;;;;17.58;22.92;94205.81;5008879;28;20485;-71
2021/04/22 11:05:31;;;;;;;1.73;1.10;;;;;;;17.47;24.52;94215.56;4995124;28;20026;-71
2021/04/22 11:07:57;;;;;;;3.70;1.10;;;;;;;17.47;23.69;94196.72;4992830;28;20025;-71
2021/04/22 11:10:33;;;;;;;2.67;1.55;;;;;;;17.30;24.23;94206.72;4996557;28;20034;-72
2021/04/22 11:13:18;;;;;;;4.35;1.50;;;;;;;17.24;25.49;94211.56;4998249;28;20029;-71
2021/04/22 11:15:57;;;;;;;3.25;1.30;;;;;;;17.37;25.32;94201.47;5003635;28;20042;-70
2021/04/22 11:18:38;;;;;;;9.90;2.05;;;;;;;17.73;25.17;94186.16;5009529;28;20784;-71
2021/04/22 11:21:06;;;;;;;11.55;2.17;;;;;;;17.90;27.37;94185.03;5005255;28;20667;-71
2021/04/22 11:23:41;;;;;;;4.95;1.83;;;;;;;18.15;25.37;94172.09;5006915;28;20068;-71
2021/04/22 11:26:29;;;;;;;4.57;1.50;;;;;;;18.33;24.77;94167.06;5003665;28;20045;-70
2021/04/22 11:29:07;;;;;;;5.30;1.88;;;;;;;18.51;23.68;94172.81;4995738;28;20481;-69